sensor_id;sensor_type;location;lat;lon;timestamp;P1;durP1;ratioP1;P2;durP2;ratioP2
67037;SDS011;53940;53.204;6.590;2022-11-14T00:00:03;2.33;;;1.48;;
67037;SDS011;53940;53.204;6.590;2022-11-14T00:03:05;2.25;;;1.50;;
67037;SDS011;53940;53.204;6.590;2022-11-14T00:06:07;2.25;;;1.52;;
67037;SDS011;53940;53.204;6.590;2022-11-14T00:09:07;2.45;;;1.60;;
67037;SDS011;53940;53.204;6.590;2022-11-14T00:12:08;2.45;;;1.80;;
67037;SDS011;53940;53.204;6.590;2022-11-14T00:15:09;1.95;;;1.38;;
67037;SDS011;53940;53.204;6.590;2022-11-14T00:18:10;2.03;;;1.50;;
67037;SDS011;53940;53.204;6.590;2022-11-14T00:21:11;2.15;;;1.40;;
67037;SDS011;53940;53.204;6.590;2022-11-14T00:24:11;2.17;;;1.40;;
67037;SDS011;53940;53.204;6.590;2022-11-14T00:27:11;2.30;;;1.70;;
67037;SDS011;53940;53.204;6.590;2022-11-14T00:30:12;2.25;;;1.45;;
67037;SDS011;53940;53.204;6.590;2022-11-14T00:33:12;1.95;;;1.40;;
67037;SDS011;53940;53.204;6.590;2022-11-14T00:36:12;2.40;;;1.60;;
67037;SDS011;53940;53.204;6.590;2022-11-14T00:39:13;2.20;;;1.50;;
67037;SDS011;53940;53.204;6.590;2022-11-14T00:42:14;2.28;;;1.58;;
67037;SDS011;53940;53.204;6.590;2022-11-14T00:45:14;2.25;;;1.65;;
67037;SDS011;53940;53.204;6.590;2022-11-14T00:48:15;2.20;;;1.40;;
67037;SDS011;53940;53.204;6.590;2022-11-14T00:51:15;2.60;;;1.55;;
67037;SDS011;53940;53.204;6.590;2022-11-14T00:54:15;2.30;;;1.50;;
67037;SDS011;53940;53.204;6.590;2022-11-14T00:57:16;2.40;;;1.70;;
67037;SDS011;53940;53.204;6.590;2022-11-14T01:00:16;2.20;;;1.58;;
67037;SDS011;53940;53.204;6.590;2022-11-14T01:03:16;2.40;;;1.70;;
67037;SDS011;53940;53.204;6.590;2022-11-14T01:06:18;2.30;;;1.50;;
67037;SDS011;53940;53.204;6.590;2022-11-14T01:09:18;2.22;;;1.50;;
67037;SDS011;53940;53.204;6.590;2022-11-14T01:12:19;3.22;;;1.67;;
67037;SDS011;53940;53.204;6.590;2022-11-14T01:15:19;2.30;;;1.63;;
67037;SDS011;53940;53.204;6.590;2022-11-14T01:18:20;2.40;;;1.50;;
67037;SDS011;53940;53.204;6.590;2022-11-14T01:21:20;2.10;;;1.52;;
67037;SDS011;53940;53.204;6.590;2022-11-14T01:24:21;2.10;;;1.50;;
67037;SDS011;53940;53.204;6.590;2022-11-14T01:27:21;2.60;;;1.75;;
67037;SDS011;53940;53.204;6.590;2022-11-14T01:30:22;2.20;;;1.33;;
67037;SDS011;53940;53.204;6.590;2022-11-14T01:33:22;2.40;;;1.73;;
67037;SDS011;53940;53.204;6.590;2022-11-14T01:36:22;2.35;;;1.80;;
67037;SDS011;53940;53.204;6.590;2022-11-14T01:39:24;2.13;;;1.70;;
67037;SDS011;53940;53.204;6.590;2022-11-14T01:42:25;2.28;;;1.60;;
67037;SDS011;53940;53.204;6.590;2022-11-14T01:48:46;2.20;;;1.70;;
67037;SDS011;53940;53.204;6.590;2022-11-14T01:52:33;2.33;;;1.65;;
67037;SDS011;53940;53.204;6.590;2022-11-14T01:55:17;2.00;;;1.60;;
67037;SDS011;53940;53.204;6.590;2022-11-14T01:58:18;2.38;;;1.70;;
67037;SDS011;53940;53.204;6.590;2022-11-14T02:01:19;2.25;;;1.80;;
67037;SDS011;53940;53.204;6.590;2022-11-14T02:04:24;2.20;;;1.50;;
67037;SDS011;53940;53.204;6.590;2022-11-14T02:10:36;2.28;;;1.80;;
67037;SDS011;53940;53.204;6.590;2022-11-14T02:13:37;2.40;;;1.90;;
67037;SDS011;53940;53.204;6.590;2022-11-14T02:16:38;2.40;;;1.92;;
67037;SDS011;53940;53.204;6.590;2022-11-14T02:19:41;2.38;;;1.80;;
67037;SDS011;53940;53.204;6.590;2022-11-14T02:22:49;2.20;;;1.65;;
67037;SDS011;53940;53.204;6.590;2022-11-14T02:25:49;2.20;;;1.70;;
67037;SDS011;53940;53.204;6.590;2022-11-14T02:28:50;2.42;;;1.80;;
67037;SDS011;53940;53.204;6.590;2022-11-14T02:31:50;2.30;;;1.60;;
67037;SDS011;53940;53.204;6.590;2022-11-14T02:34:51;2.45;;;1.85;;
67037;SDS011;53940;53.204;6.590;2022-11-14T02:37:51;2.63;;;1.88;;
67037;SDS011;53940;53.204;6.590;2022-11-14T02:40:51;2.50;;;1.92;;
67037;SDS011;53940;53.204;6.590;2022-11-14T02:43:52;2.10;;;1.50;;
67037;SDS011;53940;53.204;6.590;2022-11-14T02:46:52;2.33;;;1.63;;
67037;SDS011;53940;53.204;6.590;2022-11-14T02:49:52;2.50;;;1.80;;
67037;SDS011;53940;53.204;6.590;2022-11-14T02:52:53;2.22;;;1.63;;
67037;SDS011;53940;53.204;6.590;2022-11-14T02:55:53;2.53;;;1.90;;
67037;SDS011;53940;53.204;6.590;2022-11-14T02:58:53;2.50;;;2.00;;
67037;SDS011;53940;53.204;6.590;2022-11-14T03:01:54;2.20;;;1.83;;
67037;SDS011;53940;53.204;6.590;2022-11-14T03:04:54;2.50;;;2.00;;
67037;SDS011;53940;53.204;6.590;2022-11-14T03:07:54;2.70;;;1.90;;
67037;SDS011;53940;53.204;6.590;2022-11-14T03:10:55;2.28;;;1.77;;
67037;SDS011;53940;53.204;6.590;2022-11-14T03:14:02;2.10;;;1.63;;
67037;SDS011;53940;53.204;6.590;2022-11-14T03:17:02;2.40;;;1.77;;
67037;SDS011;53940;53.204;6.590;2022-11-14T03:20:03;2.03;;;1.60;;
67037;SDS011;53940;53.204;6.590;2022-11-14T03:23:04;2.60;;;1.98;;
67037;SDS011;53940;53.204;6.590;2022-11-14T03:26:06;2.60;;;2.05;;
67037;SDS011;53940;53.204;6.590;2022-11-14T03:29:08;2.80;;;2.10;;
67037;SDS011;53940;53.204;6.590;2022-11-14T03:32:08;2.40;;;1.80;;
67037;SDS011;53940;53.204;6.590;2022-11-14T03:35:09;2.30;;;1.80;;
67037;SDS011;53940;53.204;6.590;2022-11-14T03:38:09;2.50;;;2.00;;
67037;SDS011;53940;53.204;6.590;2022-11-14T03:41:10;2.85;;;2.30;;
67037;SDS011;53940;53.204;6.590;2022-11-14T03:44:10;2.60;;;2.17;;
67037;SDS011;53940;53.204;6.590;2022-11-14T03:47:10;2.90;;;2.20;;
67037;SDS011;53940;53.204;6.590;2022-11-14T03:50:11;3.40;;;2.30;;
67037;SDS011;53940;53.204;6.590;2022-11-14T03:53:11;2.83;;;2.13;;
67037;SDS011;53940;53.204;6.590;2022-11-14T03:56:11;2.92;;;2.22;;
67037;SDS011;53940;53.204;6.590;2022-11-14T03:59:12;3.05;;;2.28;;
67037;SDS011;53940;53.204;6.590;2022-11-14T04:02:12;3.05;;;2.63;;
67037;SDS011;53940;53.204;6.590;2022-11-14T04:05:12;3.35;;;2.40;;
67037;SDS011;53940;53.204;6.590;2022-11-14T04:08:13;3.17;;;2.70;;
67037;SDS011;53940;53.204;6.590;2022-11-14T04:11:13;3.55;;;2.55;;
67037;SDS011;53940;53.204;6.590;2022-11-14T04:14:13;3.30;;;2.88;;
67037;SDS011;53940;53.204;6.590;2022-11-14T04:17:14;3.08;;;2.60;;
67037;SDS011;53940;53.204;6.590;2022-11-14T04:20:14;3.50;;;2.70;;
67037;SDS011;53940;53.204;6.590;2022-11-14T04:23:15;3.63;;;3.13;;
67037;SDS011;53940;53.204;6.590;2022-11-14T04:26:15;4.00;;;3.33;;
67037;SDS011;53940;53.204;6.590;2022-11-14T04:29:16;3.47;;;2.92;;
67037;SDS011;53940;53.204;6.590;2022-11-14T04:32:16;3.85;;;3.45;;
67037;SDS011;53940;53.204;6.590;2022-11-14T04:35:16;3.50;;;3.10;;
67037;SDS011;53940;53.204;6.590;2022-11-14T04:38:17;3.45;;;3.15;;
67037;SDS011;53940;53.204;6.590;2022-11-14T04:41:17;3.75;;;3.40;;
67037;SDS011;53940;53.204;6.590;2022-11-14T04:44:17;3.83;;;3.42;;
67037;SDS011;53940;53.204;6.590;2022-11-14T04:47:19;4.30;;;3.55;;
67037;SDS011;53940;53.204;6.590;2022-11-14T04:50:19;4.18;;;3.78;;
67037;SDS011;53940;53.204;6.590;2022-11-14T04:53:20;4.05;;;3.60;;
67037;SDS011;53940;53.204;6.590;2022-11-14T04:56:20;4.45;;;3.45;;
67037;SDS011;53940;53.204;6.590;2022-11-14T04:59:22;3.88;;;3.47;;
67037;SDS011;53940;53.204;6.590;2022-11-14T05:02:22;3.85;;;3.42;;
67037;SDS011;53940;53.204;6.590;2022-11-14T05:05:22;4.40;;;3.72;;
67037;SDS011;53940;53.204;6.590;2022-11-14T05:08:23;4.20;;;3.47;;
67037;SDS011;53940;53.204;6.590;2022-11-14T05:11:23;4.15;;;3.75;;
67037;SDS011;53940;53.204;6.590;2022-11-14T05:14:23;3.92;;;3.50;;
67037;SDS011;53940;53.204;6.590;2022-11-14T05:17:24;4.20;;;3.80;;
67037;SDS011;53940;53.204;6.590;2022-11-14T05:20:25;4.53;;;4.13;;
67037;SDS011;53940;53.204;6.590;2022-11-14T05:23:25;4.30;;;3.90;;
67037;SDS011;53940;53.204;6.590;2022-11-14T05:26:26;4.07;;;3.67;;
67037;SDS011;53940;53.204;6.590;2022-11-14T05:29:27;4.40;;;4.00;;
67037;SDS011;53940;53.204;6.590;2022-11-14T05:32:27;4.20;;;3.60;;
67037;SDS011;53940;53.204;6.590;2022-11-14T05:35:27;4.10;;;3.70;;
67037;SDS011;53940;53.204;6.590;2022-11-14T05:38:28;3.95;;;3.50;;
67037;SDS011;53940;53.204;6.590;2022-11-14T05:41:28;4.10;;;3.70;;
67037;SDS011;53940;53.204;6.590;2022-11-14T05:44:28;4.15;;;3.75;;
67037;SDS011;53940;53.204;6.590;2022-11-14T05:47:29;4.10;;;3.70;;
67037;SDS011;53940;53.204;6.590;2022-11-14T05:50:29;3.88;;;3.47;;
67037;SDS011;53940;53.204;6.590;2022-11-14T05:53:30;4.30;;;3.90;;
67037;SDS011;53940;53.204;6.590;2022-11-14T05:56:34;4.32;;;3.58;;
67037;SDS011;53940;53.204;6.590;2022-11-14T05:59:34;4.10;;;3.70;;
67037;SDS011;53940;53.204;6.590;2022-11-14T06:02:35;4.25;;;3.85;;
67037;SDS011;53940;53.204;6.590;2022-11-14T06:05:35;4.15;;;3.75;;
67037;SDS011;53940;53.204;6.590;2022-11-14T06:08:36;4.22;;;3.83;;
67037;SDS011;53940;53.204;6.590;2022-11-14T06:11:37;4.20;;;3.80;;
67037;SDS011;53940;53.204;6.590;2022-11-14T06:14:37;4.38;;;3.97;;
67037;SDS011;53940;53.204;6.590;2022-11-14T06:17:38;4.30;;;3.90;;
67037;SDS011;53940;53.204;6.590;2022-11-14T06:20:38;4.18;;;3.67;;
67037;SDS011;53940;53.204;6.590;2022-11-14T06:23:39;3.92;;;3.53;;
67037;SDS011;53940;53.204;6.590;2022-11-14T06:26:39;4.30;;;3.90;;
67037;SDS011;53940;53.204;6.590;2022-11-14T06:29:39;4.47;;;4.07;;
67037;SDS011;53940;53.204;6.590;2022-11-14T06:32:40;4.10;;;3.70;;
67037;SDS011;53940;53.204;6.590;2022-11-14T06:35:40;4.07;;;3.58;;
67037;SDS011;53940;53.204;6.590;2022-11-14T06:38:40;4.05;;;3.65;;
67037;SDS011;53940;53.204;6.590;2022-11-14T06:41:42;4.43;;;4.03;;
67037;SDS011;53940;53.204;6.590;2022-11-14T06:44:42;4.00;;;3.60;;
67037;SDS011;53940;53.204;6.590;2022-11-14T06:47:42;4.50;;;4.10;;
67037;SDS011;53940;53.204;6.590;2022-11-14T06:50:43;3.92;;;3.53;;
67037;SDS011;53940;53.204;6.590;2022-11-14T06:53:43;4.18;;;3.78;;
67037;SDS011;53940;53.204;6.590;2022-11-14T06:56:44;4.63;;;3.55;;
67037;SDS011;53940;53.204;6.590;2022-11-14T06:59:45;4.18;;;3.78;;
67037;SDS011;53940;53.204;6.590;2022-11-14T07:02:46;4.15;;;3.63;;
67037;SDS011;53940;53.204;6.590;2022-11-14T07:05:46;4.43;;;4.03;;
67037;SDS011;53940;53.204;6.590;2022-11-14T07:08:47;4.10;;;3.70;;
67037;SDS011;53940;53.204;6.590;2022-11-14T07:11:48;4.55;;;4.15;;
67037;SDS011;53940;53.204;6.590;2022-11-14T07:14:48;4.03;;;3.63;;
67037;SDS011;53940;53.204;6.590;2022-11-14T07:17:49;4.80;;;3.90;;
67037;SDS011;53940;53.204;6.590;2022-11-14T07:20:49;4.00;;;3.63;;
67037;SDS011;53940;53.204;6.590;2022-11-14T07:23:56;3.78;;;3.42;;
67037;SDS011;53940;53.204;6.590;2022-11-14T07:26:56;3.55;;;3.25;;
67037;SDS011;53940;53.204;6.590;2022-11-14T07:29:57;3.90;;;3.50;;
67037;SDS011;53940;53.204;6.590;2022-11-14T07:32:57;3.85;;;3.42;;
67037;SDS011;53940;53.204;6.590;2022-11-14T07:35:58;4.10;;;3.67;;
67037;SDS011;53940;53.204;6.590;2022-11-14T07:38:58;3.70;;;3.30;;
67037;SDS011;53940;53.204;6.590;2022-11-14T07:41:59;4.00;;;3.60;;
67037;SDS011;53940;53.204;6.590;2022-11-14T07:44:59;4.18;;;3.78;;
67037;SDS011;53940;53.204;6.590;2022-11-14T07:48:00;3.80;;;3.40;;
67037;SDS011;53940;53.204;6.590;2022-11-14T07:51:01;3.72;;;3.33;;
67037;SDS011;53940;53.204;6.590;2022-11-14T07:54:04;3.88;;;3.53;;
67037;SDS011;53940;53.204;6.590;2022-11-14T07:57:04;3.58;;;3.28;;
67037;SDS011;53940;53.204;6.590;2022-11-14T08:00:05;3.55;;;3.10;;
67037;SDS011;53940;53.204;6.590;2022-11-14T08:03:06;3.65;;;3.20;;
67037;SDS011;53940;53.204;6.590;2022-11-14T08:06:08;4.00;;;3.60;;
67037;SDS011;53940;53.204;6.590;2022-11-14T08:09:10;3.70;;;3.33;;
67037;SDS011;53940;53.204;6.590;2022-11-14T08:12:10;3.78;;;3.38;;
67037;SDS011;53940;53.204;6.590;2022-11-14T08:15:12;3.60;;;3.28;;
67037;SDS011;53940;53.204;6.590;2022-11-14T08:18:13;3.55;;;3.25;;
67037;SDS011;53940;53.204;6.590;2022-11-14T08:21:13;3.67;;;3.38;;
67037;SDS011;53940;53.204;6.590;2022-11-14T08:24:13;3.38;;;3.08;;
67037;SDS011;53940;53.204;6.590;2022-11-14T08:27:14;3.72;;;3.33;;
67037;SDS011;53940;53.204;6.590;2022-11-14T08:30:14;3.50;;;3.20;;
67037;SDS011;53940;53.204;6.590;2022-11-14T08:33:14;3.30;;;3.00;;
67037;SDS011;53940;53.204;6.590;2022-11-14T08:36:15;3.40;;;3.08;;
67037;SDS011;53940;53.204;6.590;2022-11-14T08:39:15;3.47;;;3.17;;
67037;SDS011;53940;53.204;6.590;2022-11-14T08:42:15;3.40;;;3.10;;
67037;SDS011;53940;53.204;6.590;2022-11-14T08:45:16;3.40;;;3.10;;
67037;SDS011;53940;53.204;6.590;2022-11-14T08:48:16;3.97;;;3.10;;
67037;SDS011;53940;53.204;6.590;2022-11-14T08:51:17;3.15;;;2.80;;
67037;SDS011;53940;53.204;6.590;2022-11-14T08:54:17;3.17;;;2.80;;
67037;SDS011;53940;53.204;6.590;2022-11-14T08:57:18;3.10;;;2.80;;
67037;SDS011;53940;53.204;6.590;2022-11-14T09:00:18;3.42;;;3.00;;
67037;SDS011;53940;53.204;6.590;2022-11-14T09:03:19;3.55;;;3.15;;
67037;SDS011;53940;53.204;6.590;2022-11-14T09:06:19;3.35;;;3.05;;
67037;SDS011;53940;53.204;6.590;2022-11-14T09:09:19;6.78;;;3.03;;
67037;SDS011;53940;53.204;6.590;2022-11-14T09:12:20;3.90;;;3.50;;
67037;SDS011;53940;53.204;6.590;2022-11-14T09:15:20;3.20;;;2.80;;
67037;SDS011;53940;53.204;6.590;2022-11-14T09:18:20;3.78;;;2.90;;
67037;SDS011;53940;53.204;6.590;2022-11-14T09:21:21;3.42;;;3.13;;
67037;SDS011;53940;53.204;6.590;2022-11-14T09:24:21;3.33;;;2.85;;
67037;SDS011;53940;53.204;6.590;2022-11-14T09:27:21;2.80;;;2.50;;
67037;SDS011;53940;53.204;6.590;2022-11-14T09:30:22;2.88;;;2.42;;
67037;SDS011;53940;53.204;6.590;2022-11-14T09:33:22;3.40;;;3.10;;
67037;SDS011;53940;53.204;6.590;2022-11-14T09:36:23;3.25;;;2.88;;
67037;SDS011;53940;53.204;6.590;2022-11-14T09:39:23;3.20;;;2.80;;
67037;SDS011;53940;53.204;6.590;2022-11-14T09:45:30;3.40;;;3.10;;
67037;SDS011;53940;53.204;6.590;2022-11-14T09:48:32;3.30;;;3.00;;
67037;SDS011;53940;53.204;6.590;2022-11-14T09:51:42;3.58;;;2.67;;
67037;SDS011;53940;53.204;6.590;2022-11-14T09:54:54;3.33;;;3.03;;
67037;SDS011;53940;53.204;6.590;2022-11-14T09:57:56;3.50;;;3.05;;
67037;SDS011;53940;53.204;6.590;2022-11-14T10:01:08;3.10;;;2.75;;
67037;SDS011;53940;53.204;6.590;2022-11-14T10:04:24;3.25;;;2.90;;
67037;SDS011;53940;53.204;6.590;2022-11-14T10:21:31;2.75;;;2.40;;
67037;SDS011;53940;53.204;6.590;2022-11-14T10:25:00;3.20;;;2.60;;
67037;SDS011;53940;53.204;6.590;2022-11-14T10:34:36;3.10;;;2.80;;
67037;SDS011;53940;53.204;6.590;2022-11-14T10:37:54;3.70;;;3.22;;
67037;SDS011;53940;53.204;6.590;2022-11-14T10:41:02;3.22;;;2.90;;
67037;SDS011;53940;53.204;6.590;2022-11-14T10:44:08;3.30;;;2.95;;
67037;SDS011;53940;53.204;6.590;2022-11-14T10:47:13;2.95;;;2.65;;
67037;SDS011;53940;53.204;6.590;2022-11-14T10:50:19;3.08;;;2.70;;
67037;SDS011;53940;53.204;6.590;2022-11-14T10:53:25;3.03;;;2.60;;
67037;SDS011;53940;53.204;6.590;2022-11-14T10:56:26;3.83;;;2.80;;
67037;SDS011;53940;53.204;6.590;2022-11-14T10:59:27;2.78;;;2.40;;
67037;SDS011;53940;53.204;6.590;2022-11-14T11:02:35;3.22;;;2.88;;
67037;SDS011;53940;53.204;6.590;2022-11-14T11:05:53;3.50;;;2.63;;
67037;SDS011;53940;53.204;6.590;2022-11-14T11:08:57;3.72;;;2.70;;
67037;SDS011;53940;53.204;6.590;2022-11-14T11:12:16;3.10;;;2.72;;
67037;SDS011;53940;53.204;6.590;2022-11-14T11:15:22;4.45;;;3.10;;
67037;SDS011;53940;53.204;6.590;2022-11-14T11:18:33;2.80;;;2.50;;
67037;SDS011;53940;53.204;6.590;2022-11-14T11:21:45;4.13;;;2.80;;
67037;SDS011;53940;53.204;6.590;2022-11-14T11:24:50;2.97;;;2.67;;
67037;SDS011;53940;53.204;6.590;2022-11-14T11:31:14;2.90;;;2.50;;
67037;SDS011;53940;53.204;6.590;2022-11-14T11:34:16;3.27;;;2.60;;
67037;SDS011;53940;53.204;6.590;2022-11-14T11:37:34;3.40;;;3.10;;
67037;SDS011;53940;53.204;6.590;2022-11-14T11:40:39;2.92;;;2.63;;
67037;SDS011;53940;53.204;6.590;2022-11-14T11:43:44;3.10;;;2.60;;
67037;SDS011;53940;53.204;6.590;2022-11-14T11:46:53;3.53;;;2.70;;
67037;SDS011;53940;53.204;6.590;2022-11-14T11:49:56;3.85;;;2.70;;
67037;SDS011;53940;53.204;6.590;2022-11-14T11:53:06;3.40;;;3.00;;
67037;SDS011;53940;53.204;6.590;2022-11-14T11:56:18;4.03;;;2.90;;
67037;SDS011;53940;53.204;6.590;2022-11-14T12:02:34;4.35;;;3.17;;
67037;SDS011;53940;53.204;6.590;2022-11-14T12:05:40;4.10;;;3.05;;
67037;SDS011;53940;53.204;6.590;2022-11-14T12:09:05;4.18;;;3.08;;
67037;SDS011;53940;53.204;6.590;2022-11-14T12:12:47;5.07;;;3.08;;
67037;SDS011;53940;53.204;6.590;2022-11-14T12:16:03;3.45;;;2.70;;
67037;SDS011;53940;53.204;6.590;2022-11-14T12:22:41;3.53;;;2.70;;
67037;SDS011;53940;53.204;6.590;2022-11-14T12:26:19;3.63;;;3.05;;
67037;SDS011;53940;53.204;6.590;2022-11-14T12:29:25;3.38;;;2.88;;
67037;SDS011;53940;53.204;6.590;2022-11-14T12:35:59;3.35;;;2.58;;
67037;SDS011;53940;53.204;6.590;2022-11-14T12:39:03;3.85;;;3.05;;
67037;SDS011;53940;53.204;6.590;2022-11-14T12:42:04;3.30;;;2.40;;
67037;SDS011;53940;53.204;6.590;2022-11-14T12:45:47;3.45;;;2.97;;
67037;SDS011;53940;53.204;6.590;2022-11-14T12:54:46;4.18;;;2.60;;
67037;SDS011;53940;53.204;6.590;2022-11-14T12:58:05;3.20;;;2.67;;
67037;SDS011;53940;53.204;6.590;2022-11-14T13:15:23;3.55;;;2.60;;
67037;SDS011;53940;53.204;6.590;2022-11-14T13:18:55;3.40;;;2.90;;
67037;SDS011;53940;53.204;6.590;2022-11-14T13:22:34;3.40;;;2.33;;
67037;SDS011;53940;53.204;6.590;2022-11-14T13:25:37;2.95;;;2.50;;
67037;SDS011;53940;53.204;6.590;2022-11-14T13:31:46;3.47;;;2.70;;
67037;SDS011;53940;53.204;6.590;2022-11-14T13:34:49;3.13;;;2.55;;
67037;SDS011;53940;53.204;6.590;2022-11-14T13:45:10;3.00;;;2.22;;
67037;SDS011;53940;53.204;6.590;2022-11-14T13:51:49;3.75;;;2.55;;
67037;SDS011;53940;53.204;6.590;2022-11-14T13:54:52;3.10;;;2.35;;
67037;SDS011;53940;53.204;6.590;2022-11-14T14:14:59;2.70;;;2.20;;
67037;SDS011;53940;53.204;6.590;2022-11-14T14:18:10;3.70;;;2.83;;
67037;SDS011;53940;53.204;6.590;2022-11-14T14:28:17;2.97;;;2.60;;
67037;SDS011;53940;53.204;6.590;2022-11-14T14:31:38;3.10;;;2.30;;
67037;SDS011;53940;53.204;6.590;2022-11-14T14:34:40;3.65;;;2.78;;
67037;SDS011;53940;53.204;6.590;2022-11-14T14:37:48;2.97;;;2.38;;
67037;SDS011;53940;53.204;6.590;2022-11-14T14:40:51;3.63;;;2.75;;
67037;SDS011;53940;53.204;6.590;2022-11-14T14:43:53;3.20;;;2.58;;
67037;SDS011;53940;53.204;6.590;2022-11-14T14:46:54;3.38;;;2.58;;
67037;SDS011;53940;53.204;6.590;2022-11-14T14:49:55;3.17;;;2.40;;
67037;SDS011;53940;53.204;6.590;2022-11-14T14:52:57;3.38;;;2.65;;
67037;SDS011;53940;53.204;6.590;2022-11-14T14:56:06;2.83;;;2.25;;
67037;SDS011;53940;53.204;6.590;2022-11-14T14:59:18;3.00;;;2.40;;
67037;SDS011;53940;53.204;6.590;2022-11-14T15:02:21;3.30;;;2.50;;
67037;SDS011;53940;53.204;6.590;2022-11-14T15:05:23;2.80;;;2.20;;
67037;SDS011;53940;53.204;6.590;2022-11-14T15:08:25;4.07;;;2.67;;
67037;SDS011;53940;53.204;6.590;2022-11-14T15:11:27;2.90;;;2.38;;
67037;SDS011;53940;53.204;6.590;2022-11-14T15:14:29;3.65;;;2.60;;
67037;SDS011;53940;53.204;6.590;2022-11-14T15:17:31;3.15;;;2.38;;
67037;SDS011;53940;53.204;6.590;2022-11-14T15:20:32;3.40;;;2.67;;
67037;SDS011;53940;53.204;6.590;2022-11-14T15:23:37;3.00;;;2.40;;
67037;SDS011;53940;53.204;6.590;2022-11-14T15:26:38;2.83;;;2.38;;
67037;SDS011;53940;53.204;6.590;2022-11-14T15:29:45;3.42;;;2.42;;
67037;SDS011;53940;53.204;6.590;2022-11-14T15:32:48;2.95;;;2.45;;
67037;SDS011;53940;53.204;6.590;2022-11-14T15:36:03;3.20;;;2.28;;
67037;SDS011;53940;53.204;6.590;2022-11-14T15:39:21;2.65;;;2.13;;
67037;SDS011;53940;53.204;6.590;2022-11-14T15:42:26;3.08;;;2.45;;
67037;SDS011;53940;53.204;6.590;2022-11-14T15:45:39;3.35;;;2.40;;
67037;SDS011;53940;53.204;6.590;2022-11-14T15:48:39;2.97;;;2.30;;
67037;SDS011;53940;53.204;6.590;2022-11-14T15:51:41;2.88;;;2.30;;
67037;SDS011;53940;53.204;6.590;2022-11-14T15:55:02;3.30;;;2.30;;
67037;SDS011;53940;53.204;6.590;2022-11-14T15:58:06;2.67;;;2.20;;
67037;SDS011;53940;53.204;6.590;2022-11-14T16:01:12;3.10;;;2.40;;
67037;SDS011;53940;53.204;6.590;2022-11-14T16:04:27;2.70;;;2.30;;
67037;SDS011;53940;53.204;6.590;2022-11-14T16:07:30;2.55;;;2.10;;
67037;SDS011;53940;53.204;6.590;2022-11-14T16:10:31;2.75;;;2.13;;
67037;SDS011;53940;53.204;6.590;2022-11-14T16:13:31;2.60;;;2.10;;
67037;SDS011;53940;53.204;6.590;2022-11-14T16:16:31;3.15;;;2.40;;
67037;SDS011;53940;53.204;6.590;2022-11-14T16:19:32;3.17;;;2.63;;
67037;SDS011;53940;53.204;6.590;2022-11-14T16:22:32;3.20;;;2.20;;
67037;SDS011;53940;53.204;6.590;2022-11-14T16:25:32;2.40;;;2.00;;
67037;SDS011;53940;53.204;6.590;2022-11-14T16:28:33;2.90;;;2.10;;
67037;SDS011;53940;53.204;6.590;2022-11-14T16:31:33;2.50;;;1.88;;
67037;SDS011;53940;53.204;6.590;2022-11-14T16:34:34;2.50;;;1.90;;
67037;SDS011;53940;53.204;6.590;2022-11-14T16:37:34;2.60;;;2.08;;
67037;SDS011;53940;53.204;6.590;2022-11-14T16:40:35;2.70;;;2.13;;
67037;SDS011;53940;53.204;6.590;2022-11-14T16:43:35;2.88;;;2.15;;
67037;SDS011;53940;53.204;6.590;2022-11-14T16:46:36;2.72;;;2.00;;
67037;SDS011;53940;53.204;6.590;2022-11-14T16:49:37;2.42;;;2.05;;
67037;SDS011;53940;53.204;6.590;2022-11-14T16:52:38;3.20;;;2.30;;
67037;SDS011;53940;53.204;6.590;2022-11-14T16:55:42;2.42;;;2.05;;
67037;SDS011;53940;53.204;6.590;2022-11-14T16:58:43;2.63;;;2.03;;
67037;SDS011;53940;53.204;6.590;2022-11-14T17:01:44;2.97;;;2.00;;
67037;SDS011;53940;53.204;6.590;2022-11-14T17:04:45;2.53;;;2.00;;
67037;SDS011;53940;53.204;6.590;2022-11-14T17:07:46;2.20;;;1.65;;
67037;SDS011;53940;53.204;6.590;2022-11-14T17:10:46;2.40;;;1.85;;
67037;SDS011;53940;53.204;6.590;2022-11-14T17:13:47;2.63;;;1.98;;
67037;SDS011;53940;53.204;6.590;2022-11-14T17:16:47;2.80;;;2.00;;
67037;SDS011;53940;53.204;6.590;2022-11-14T17:19:48;2.35;;;1.85;;
67037;SDS011;53940;53.204;6.590;2022-11-14T17:22:48;2.75;;;2.13;;
67037;SDS011;53940;53.204;6.590;2022-11-14T17:25:49;2.58;;;2.00;;
67037;SDS011;53940;53.204;6.590;2022-11-14T17:28:49;2.58;;;2.00;;
67037;SDS011;53940;53.204;6.590;2022-11-14T17:31:49;2.30;;;1.75;;
67037;SDS011;53940;53.204;6.590;2022-11-14T17:34:50;2.50;;;1.83;;
67037;SDS011;53940;53.204;6.590;2022-11-14T17:37:50;2.58;;;1.75;;
67037;SDS011;53940;53.204;6.590;2022-11-14T17:40:55;3.08;;;2.03;;
67037;SDS011;53940;53.204;6.590;2022-11-14T17:43:56;2.80;;;1.98;;
67037;SDS011;53940;53.204;6.590;2022-11-14T17:47:00;2.45;;;2.00;;
67037;SDS011;53940;53.204;6.590;2022-11-14T17:50:01;2.47;;;1.80;;
67037;SDS011;53940;53.204;6.590;2022-11-14T17:53:01;2.63;;;2.00;;
67037;SDS011;53940;53.204;6.590;2022-11-14T17:56:02;2.22;;;1.80;;
67037;SDS011;53940;53.204;6.590;2022-11-14T17:59:02;2.45;;;1.75;;
67037;SDS011;53940;53.204;6.590;2022-11-14T18:02:03;2.70;;;1.90;;
67037;SDS011;53940;53.204;6.590;2022-11-14T18:05:03;2.67;;;1.88;;
67037;SDS011;53940;53.204;6.590;2022-11-14T18:08:04;3.28;;;1.92;;
67037;SDS011;53940;53.204;6.590;2022-11-14T18:11:06;2.42;;;2.00;;
67037;SDS011;53940;53.204;6.590;2022-11-14T18:14:08;2.53;;;1.95;;
67037;SDS011;53940;53.204;6.590;2022-11-14T18:17:08;2.70;;;1.92;;
67037;SDS011;53940;53.204;6.590;2022-11-14T18:20:08;2.60;;;1.88;;
67037;SDS011;53940;53.204;6.590;2022-11-14T18:23:09;2.28;;;1.80;;
67037;SDS011;53940;53.204;6.590;2022-11-14T18:29:09;2.50;;;1.83;;
67037;SDS011;53940;53.204;6.590;2022-11-14T18:32:11;2.60;;;2.00;;
67037;SDS011;53940;53.204;6.590;2022-11-14T18:35:12;2.67;;;1.98;;
67037;SDS011;53940;53.204;6.590;2022-11-14T18:38:12;2.30;;;1.73;;
67037;SDS011;53940;53.204;6.590;2022-11-14T18:41:13;2.42;;;1.67;;
67037;SDS011;53940;53.204;6.590;2022-11-14T18:44:15;2.40;;;2.05;;
67037;SDS011;53940;53.204;6.590;2022-11-14T18:47:15;2.72;;;1.50;;
67037;SDS011;53940;53.204;6.590;2022-11-14T18:50:16;2.30;;;1.88;;
67037;SDS011;53940;53.204;6.590;2022-11-14T18:53:16;2.45;;;2.00;;
67037;SDS011;53940;53.204;6.590;2022-11-14T18:56:17;2.60;;;2.00;;
67037;SDS011;53940;53.204;6.590;2022-11-14T18:59:19;2.25;;;1.80;;
67037;SDS011;53940;53.204;6.590;2022-11-14T19:02:19;2.60;;;1.80;;
67037;SDS011;53940;53.204;6.590;2022-11-14T19:05:20;2.20;;;1.85;;
67037;SDS011;53940;53.204;6.590;2022-11-14T19:08:20;2.33;;;1.70;;
67037;SDS011;53940;53.204;6.590;2022-11-14T19:11:20;2.30;;;1.80;;
67037;SDS011;53940;53.204;6.590;2022-11-14T19:14:39;2.47;;;1.90;;
67037;SDS011;53940;53.204;6.590;2022-11-14T19:17:39;2.47;;;1.90;;
67037;SDS011;53940;53.204;6.590;2022-11-14T19:20:41;2.45;;;1.80;;
67037;SDS011;53940;53.204;6.590;2022-11-14T19:23:42;2.88;;;2.15;;
67037;SDS011;53940;53.204;6.590;2022-11-14T19:26:43;2.95;;;1.85;;
67037;SDS011;53940;53.204;6.590;2022-11-14T19:29:43;2.85;;;1.70;;
67037;SDS011;53940;53.204;6.590;2022-11-14T19:32:44;2.45;;;2.00;;
67037;SDS011;53940;53.204;6.590;2022-11-14T19:35:44;2.53;;;1.70;;
67037;SDS011;53940;53.204;6.590;2022-11-14T19:38:44;2.70;;;1.88;;
67037;SDS011;53940;53.204;6.590;2022-11-14T19:41:45;2.10;;;1.60;;
67037;SDS011;53940;53.204;6.590;2022-11-14T19:44:45;2.30;;;1.65;;
67037;SDS011;53940;53.204;6.590;2022-11-14T19:47:45;2.38;;;1.77;;
67037;SDS011;53940;53.204;6.590;2022-11-14T19:50:46;2.30;;;1.70;;
67037;SDS011;53940;53.204;6.590;2022-11-14T19:53:47;2.40;;;1.70;;
67037;SDS011;53940;53.204;6.590;2022-11-14T19:56:47;2.05;;;1.65;;
67037;SDS011;53940;53.204;6.590;2022-11-14T19:59:48;2.20;;;1.63;;
67037;SDS011;53940;53.204;6.590;2022-11-14T20:02:48;2.80;;;1.92;;
67037;SDS011;53940;53.204;6.590;2022-11-14T20:05:49;2.58;;;1.90;;